Time;durP1;ratioP1;P1;durP2;ratioP2;P2;SDS_P1;SDS_P2;PMS_P1;PMS_P2;Temp;Humidity;BMP_temperature;BMP_pressure;BME280_temperature;BME280_humidity;BME280_pressure;Samples;Min_cycle;Max_cycle;Signal;HPM_P1;HPM_P2
2022/04/11 00:00:09;;;;;;;5.97;4.25;;;;;;;;;;4997973;28;20275;-75
2022/04/11 00:02:34;;;;;;;12.93;4.82;;;;;;;;;;5002204;28;20026;-75
2022/04/11 00:05:00;;;;;;;5.80;4.68;;;;;;;;;;5001420;28;20373;-75
2022/04/11 00:07:25;;;;;;;6.82;4.30;;;;;;;;;;5004687;28;20025;-75
2022/04/11 00:09:50;;;;;;;14.02;5.88;;;;;;;;;;5003781;28;20079;-75
2022/04/11 00:12:15;;;;;;;6.47;4.32;;;;;;;;;;5010353;28;20263;-75
2022/04/11 00:14:40;;;;;;;9.00;5.00;;;;;;;;;;5004865;28;20259;-75
2022/04/11 00:17:05;;;;;;;8.75;4.32;;;;;;;;;;5009499;28;20318;-75
2022/04/11 00:19:31;;;;;;;5.55;4.53;;;;;;;;;;5013996;28;20049;-75
2022/04/11 00:21:56;;;;;;;6.10;4.55;;;;;;;;;;5007482;28;20075;-75
2022/04/11 00:24:21;;;;;;;7.13;4.77;;;;;;;;;;5007924;28;20623;-75
2022/04/11 00:26:46;;;;;;;13.93;4.78;;;;;;;;;;5006096;28;20259;-75
2022/04/11 00:29:11;;;;;;;8.85;4.88;;;;;;;;;;5013349;28;20076;-75
2022/04/11 00:31:36;;;;;;;7.07;4.00;;;;;;;;;;5007134;28;20068;-76
2022/04/11 00:34:02;;;;;;;5.33;4.53;;;;;;;;;;5008644;28;20286;-75
2022/04/11 00:36:27;;;;;;;8.98;5.75;;;;;;;;;;4998901;28;20305;-75
2022/04/11 00:38:52;;;;;;;6.90;4.55;;;;;;;;;;5003886;28;20018;-75
2022/04/11 00:41:17;;;;;;;6.32;4.65;;;;;;;;;;5015471;28;20120;-75
2022/04/11 00:43:42;;;;;;;8.68;5.00;;;;;;;;;;5005809;28;20252;-75
2022/04/11 00:46:08;;;;;;;8.77;5.07;;;;;;;;;;5003257;28;20033;-75
2022/04/11 00:48:34;;;;;;;7.90;4.90;;;;;;;;;;5005850;28;20252;-75
2022/04/11 00:51:04;;;;;;;8.30;4.82;;;;;;;;;;5008589;28;20029;-75
2022/04/11 00:53:30;;;;;;;15.82;6.78;;;;;;;;;;5024554;28;20048;-75
2022/04/11 00:55:56;;;;;;;5.80;4.75;;;;;;;;;;5002838;28;20021;-75
2022/04/11 00:58:21;;;;;;;8.70;4.85;;;;;;;;;;5004610;28;20028;-75
2022/04/11 01:00:46;;;;;;;12.70;6.75;;;;;;;;;;5005891;28;20041;-75
2022/04/11 01:03:12;;;;;;;12.85;6.75;;;;;;;;;;5002746;28;20038;-75
2022/04/11 01:05:37;;;;;;;10.13;5.97;;;;;;;;;;5008533;28;20514;-75
2022/04/11 01:08:06;;;;;;;14.18;6.22;;;;;;;;;;5006691;28;20022;-75
2022/04/11 01:10:32;;;;;;;11.63;6.95;;;;;;;;;;5006679;28;20030;-75
2022/04/11 01:12:57;;;;;;;16.08;7.18;;;;;;;;;;5005387;28;20474;-75
2022/04/11 01:15:22;;;;;;;11.55;6.72;;;;;;;;;;5013189;28;20025;-75
2022/04/11 01:17:47;;;;;;;10.93;6.65;;;;;;;;;;5012494;28;20056;-75
2022/04/11 01:20:13;;;;;;;12.40;8.23;;;;;;;;;;5006020;28;20066;-75
2022/04/11 01:22:39;;;;;;;15.18;7.95;;;;;;;;;;5009763;28;20024;-75
2022/04/11 01:25:04;;;;;;;17.08;8.95;;;;;;;;;;5005496;28;20093;-75
2022/04/11 01:27:30;;;;;;;15.50;8.40;;;;;;;;;;5004206;28;20049;-75
2022/04/11 01:29:55;;;;;;;16.95;8.27;;;;;;;;;;5004725;28;20484;-75
2022/04/11 01:32:20;;;;;;;15.87;8.00;;;;;;;;;;5007659;28;20163;-75
2022/04/11 01:34:45;;;;;;;16.60;7.43;;;;;;;;;;5004777;28;20610;-75
2022/04/11 01:37:11;;;;;;;13.90;7.93;;;;;;;;;;5004285;28;20275;-75
2022/04/11 01:39:36;;;;;;;13.55;7.10;;;;;;;;;;5005392;28;20730;-75
2022/04/11 01:42:01;;;;;;;13.45;8.88;;;;;;;;;;5002525;28;20022;-75
2022/04/11 01:44:27;;;;;;;14.57;7.85;;;;;;;;;;5002143;28;20026;-75
2022/04/11 01:46:52;;;;;;;16.77;7.70;;;;;;;;;;5007091;28;20071;-75
2022/04/11 01:49:17;;;;;;;19.42;8.52;;;;;;;;;;5003322;28;20255;-75
2022/04/11 01:51:42;;;;;;;15.45;7.88;;;;;;;;;;5005968;28;20263;-75
2022/04/11 01:54:07;;;;;;;14.40;7.53;;;;;;;;;;5002690;28;20071;-75
2022/04/11 01:56:33;;;;;;;15.82;8.25;;;;;;;;;;5011215;28;20030;-74
2022/04/11 01:58:58;;;;;;;13.73;6.85;;;;;;;;;;5004934;28;20022;-75
2022/04/11 02:01:23;;;;;;;18.13;8.25;;;;;;;;;;5000597;28;20052;-75
2022/04/11 02:03:48;;;;;;;14.38;7.63;;;;;;;;;;5005016;28;20259;-75
2022/04/11 02:06:13;;;;;;;13.13;8.43;;;;;;;;;;5002832;28;20375;-75
2022/04/11 02:08:38;;;;;;;15.52;9.00;;;;;;;;;;5003949;28;20283;-75
2022/04/11 02:11:04;;;;;;;16.48;8.15;;;;;;;;;;5005709;28;20160;-75
2022/04/11 02:13:29;;;;;;;18.67;10.27;;;;;;;;;;5000933;28;20461;-75
2022/04/11 02:15:54;;;;;;;19.58;9.75;;;;;;;;;;5002856;28;20080;-75
2022/04/11 02:18:19;;;;;;;17.23;9.38;;;;;;;;;;5008677;28;20310;-75
2022/04/11 02:20:44;;;;;;;23.30;9.90;;;;;;;;;;4998745;28;20280;-75
2022/04/11 02:23:09;;;;;;;21.50;11.13;;;;;;;;;;5001189;28;20283;-75
2022/04/11 02:25:35;;;;;;;15.10;9.00;;;;;;;;;;5005457;28;20287;-75
2022/04/11 02:28:00;;;;;;;21.85;10.10;;;;;;;;;;5006047;28;20391;-74
2022/04/11 02:30:26;;;;;;;16.63;9.02;;;;;;;;;;5002468;28;20051;-75
2022/04/11 02:32:51;;;;;;;20.45;9.30;;;;;;;;;;5004642;28;20029;-75
2022/04/11 02:35:17;;;;;;;17.90;9.27;;;;;;;;;;5005493;28;20476;-75
2022/04/11 02:37:44;;;;;;;14.75;8.60;;;;;;;;;;5006157;28;20121;-75
2022/04/11 02:40:10;;;;;;;12.60;8.27;;;;;;;;;;5008838;28;20483;-75
2022/04/11 02:42:35;;;;;;;15.45;9.20;;;;;;;;;;5004943;28;20526;-75
2022/04/11 02:45:01;;;;;;;14.10;8.57;;;;;;;;;;5007676;28;20022;-75
2022/04/11 02:47:27;;;;;;;21.15;10.30;;;;;;;;;;5015114;28;20026;-75
2022/04/11 02:49:52;;;;;;;16.48;9.45;;;;;;;;;;5008269;28;20036;-75
2022/04/11 02:52:18;;;;;;;16.05;8.95;;;;;;;;;;5007566;28;20031;-75
2022/04/11 02:54:43;;;;;;;16.98;9.60;;;;;;;;;;5010175;28;20448;-75
2022/04/11 02:57:08;;;;;;;17.13;9.65;;;;;;;;;;5015948;28;20056;-75
2022/04/11 02:59:34;;;;;;;19.38;11.18;;;;;;;;;;5001110;28;20271;-75
2022/04/11 03:02:00;;;;;;;16.92;10.07;;;;;;;;;;5009026;28;20145;-75
2022/04/11 03:04:26;;;;;;;17.27;9.98;;;;;;;;;;5007634;28;20029;-75
2022/04/11 03:06:51;;;;;;;18.40;10.52;;;;;;;;;;5019444;28;20069;-75
2022/04/11 03:09:16;;;;;;;17.88;9.23;;;;;;;;;;5002614;28;20531;-75
2022/04/11 03:11:41;;;;;;;15.88;8.80;;;;;;;;;;5007362;28;20152;-75
2022/04/11 03:14:07;;;;;;;12.40;8.30;;;;;;;;;;5015792;28;20263;-75
2022/04/11 03:16:33;;;;;;;17.13;8.43;;;;;;;;;;5000132;28;20359;-75
2022/04/11 03:18:58;;;;;;;13.82;8.20;;;;;;;;;;5011413;28;20049;-75
2022/04/11 03:21:23;;;;;;;17.43;9.30;;;;;;;;;;5008547;28;20049;-75
2022/04/11 03:23:48;;;;;;;12.02;8.10;;;;;;;;;;5011841;28;20321;-75
2022/04/11 03:26:13;;;;;;;18.52;9.40;;;;;;;;;;5009919;28;20263;-75
2022/04/11 03:28:39;;;;;;;15.80;9.07;;;;;;;;;;5002371;28;20255;-74
2022/04/11 03:31:04;;;;;;;16.02;9.10;;;;;;;;;;5004443;28;20264;-76
2022/04/11 03:33:29;;;;;;;13.70;8.85;;;;;;;;;;4999650;28;20125;-75
2022/04/11 03:35:54;;;;;;;16.37;9.50;;;;;;;;;;5011352;28;20538;-75
2022/04/11 03:38:19;;;;;;;19.08;9.10;;;;;;;;;;5007961;28;20324;-75
2022/04/11 03:40:44;;;;;;;15.85;9.10;;;;;;;;;;5009084;28;20366;-75
2022/04/11 03:43:10;;;;;;;13.82;9.20;;;;;;;;;;4995843;28;20335;-75
2022/04/11 03:45:35;;;;;;;15.15;9.05;;;;;;;;;;5007454;28;20064;-75
2022/04/11 03:48:00;;;;;;;11.57;7.97;;;;;;;;;;5010655;28;20029;-75
2022/04/11 03:50:25;;;;;;;19.67;8.73;;;;;;;;;;5006266;28;20019;-75
2022/04/11 03:52:50;;;;;;;16.38;8.65;;;;;;;;;;5010719;28;20753;-75
2022/04/11 03:55:16;;;;;;;14.30;8.32;;;;;;;;;;5007681;28;20267;-75
2022/04/11 03:57:41;;;;;;;16.38;9.77;;;;;;;;;;5011773;28;20267;-75
2022/04/11 04:00:07;;;;;;;16.70;9.00;;;;;;;;;;5017299;28;20026;-75
2022/04/11 04:02:32;;;;;;;15.95;9.20;;;;;;;;;;5003941;28;20022;-75
2022/04/11 04:04:57;;;;;;;18.02;9.48;;;;;;;;;;5014500;28;20036;-76
2022/04/11 04:07:22;;;;;;;18.05;9.43;;;;;;;;;;5004126;28;20030;-75
2022/04/11 04:09:48;;;;;;;15.73;9.88;;;;;;;;;;5017083;28;20041;-74
2022/04/11 04:12:13;;;;;;;19.23;9.75;;;;;;;;;;5006368;28;20117;-73
2022/04/11 04:14:38;;;;;;;17.75;10.38;;;;;;;;;;5012881;28;20053;-75
2022/04/11 04:17:04;;;;;;;21.63;11.27;;;;;;;;;;5006962;28;20025;-75
2022/04/11 04:19:29;;;;;;;16.48;10.27;;;;;;;;;;5015284;28;20442;-74
2022/04/11 04:21:54;;;;;;;15.52;9.73;;;;;;;;;;5011872;28;20484;-75
2022/04/11 04:24:22;;;;;;;18.00;9.50;;;;;;;;;;5013797;28;20501;-74
2022/04/11 04:26:48;;;;;;;22.23;10.32;;;;;;;;;;5011809;28;20706;-74
2022/04/11 04:29:14;;;;;;;20.08;10.77;;;;;;;;;;5005959;28;20061;-76
2022/04/11 04:31:39;;;;;;;23.48;12.60;;;;;;;;;;5005280;28;20022;-76
2022/04/11 04:34:04;;;;;;;17.85;12.02;;;;;;;;;;5007708;28;20137;-76
2022/04/11 04:36:29;;;;;;;17.83;11.88;;;;;;;;;;5012328;28;20556;-76
2022/04/11 04:38:54;;;;;;;25.05;11.80;;;;;;;;;;5008976;28;20036;-76
2022/04/11 04:41:20;;;;;;;25.30;12.10;;;;;;;;;;5010709;28;20282;-76
2022/04/11 04:43:45;;;;;;;25.17;11.95;;;;;;;;;;5007472;28;20018;-76
2022/04/11 04:46:10;;;;;;;23.95;12.13;;;;;;;;;;5006535;28;20057;-76
2022/04/11 04:48:35;;;;;;;21.00;10.50;;;;;;;;;;5007949;28;20267;-77
2022/04/11 04:51:01;;;;;;;20.90;11.20;;;;;;;;;;5004602;28;20267;-75
2022/04/11 04:53:26;;;;;;;22.08;11.10;;;;;;;;;;5007552;28;20268;-78
2022/04/11 04:55:51;;;;;;;22.55;11.50;;;;;;;;;;5002200;28;20064;-76
2022/04/11 04:58:16;;;;;;;25.88;11.98;;;;;;;;;;5000343;28;20624;-76
2022/04/11 05:00:41;;;;;;;20.40;11.07;;;;;;;;;;5007887;28;20034;-76
2022/04/11 05:03:07;;;;;;;22.77;11.48;;;;;;;;;;5004230;28;20773;-76
2022/04/11 05:05:32;;;;;;;23.48;12.20;;;;;;;;;;5000966;28;20022;-75
2022/04/11 05:07:57;;;;;;;18.77;11.73;;;;;;;;;;4999969;28;20014;-76
2022/04/11 05:10:22;;;;;;;17.38;11.00;;;;;;;;;;5003100;28;20057;-76
2022/04/11 05:12:48;;;;;;;25.17;12.52;;;;;;;;;;5004107;28;20026;-75
2022/04/11 05:15:13;;;;;;;21.30;11.35;;;;;;;;;;5000245;28;20045;-75
2022/04/11 05:17:38;;;;;;;25.35;12.68;;;;;;;;;;5001177;28;20056;-75
2022/04/11 05:20:04;;;;;;;24.13;11.73;;;;;;;;;;5002374;28;20491;-76
2022/04/11 05:22:30;;;;;;;21.27;12.27;;;;;;;;;;5000480;28;20398;-76
2022/04/11 05:24:55;;;;;;;30.23;12.60;;;;;;;;;;4999130;28;20436;-76
2022/04/11 05:27:20;;;;;;;22.13;12.20;;;;;;;;;;4998652;28;20034;-74
2022/04/11 05:29:45;;;;;;;27.08;13.63;;;;;;;;;;4998457;28;20104;-74
2022/04/11 05:32:10;;;;;;;25.88;12.90;;;;;;;;;;5005431;28;20275;-73
2022/04/11 05:34:36;;;;;;;24.05;12.48;;;;;;;;;;5001489;28;20290;-75
2022/04/11 05:37:01;;;;;;;25.42;13.02;;;;;;;;;;5001629;28;20121;-74
2022/04/11 05:39:26;;;;;;;25.40;11.90;;;;;;;;;;4996937;28;20116;-75
2022/04/11 05:41:51;;;;;;;23.15;11.95;;;;;;;;;;5003744;28;20021;-74
2022/04/11 05:44:16;;;;;;;25.90;14.55;;;;;;;;;;4998915;28;20385;-74
2022/04/11 05:46:41;;;;;;;31.27;14.57;;;;;;;;;;5001535;28;20298;-74
2022/04/11 05:49:07;;;;;;;29.35;14.23;;;;;;;;;;4998115;28;20350;-74
2022/04/11 05:51:32;;;;;;;30.48;14.57;;;;;;;;;;5006160;28;20267;-74
2022/04/11 05:53:57;;;;;;;30.17;14.45;;;;;;;;;;5007758;28;20287;-74
2022/04/11 05:56:22;;;;;;;29.48;15.05;;;;;;;;;;5003696;28;20570;-74
2022/04/11 05:58:47;;;;;;;32.10;16.47;;;;;;;;;;4994009;28;20804;-74
2022/04/11 06:01:12;;;;;;;32.55;15.52;;;;;;;;;;5004594;28;20291;-74
2022/04/11 06:03:38;;;;;;;35.67;15.43;;;;;;;;;;4998403;28;20286;-74
2022/04/11 06:06:03;;;;;;;25.45;14.98;;;;;;;;;;5005432;28;20028;-74
2022/04/11 06:08:28;;;;;;;26.77;14.68;;;;;;;;;;5007190;28;20021;-73
2022/04/11 06:10:53;;;;;;;28.93;14.80;;;;;;;;;;4998883;28;20460;-73
2022/04/11 06:13:19;;;;;;;27.90;14.73;;;;;;;;;;5005486;28;20279;-74
2022/04/11 06:15:44;;;;;;;29.83;13.45;;;;;;;;;;5003239;28;20274;-74
2022/04/11 06:18:09;;;;;;;34.60;15.35;;;;;;;;;;5001824;28;20677;-73
2022/04/11 06:20:34;;;;;;;26.50;13.40;;;;;;;;;;5007749;28;20057;-73
2022/04/11 06:23:00;;;;;;;27.05;14.93;;;;;;;;;;5001103;28;20251;-74
2022/04/11 06:25:25;;;;;;;26.48;14.60;;;;;;;;;;5000684;28;20124;-72
2022/04/11 06:27:50;;;;;;;36.97;18.33;;;;;;;;;;4999264;28;20030;-72
2022/04/11 06:30:15;;;;;;;25.58;16.10;;;;;;;;;;5004242;28;20351;-72
2022/04/11 06:32:41;;;;;;;25.63;15.80;;;;;;;;;;4993733;28;20263;-72
2022/04/11 06:35:06;;;;;;;29.03;13.73;;;;;;;;;;4998288;28;20807;-73
2022/04/11 06:37:31;;;;;;;27.48;13.90;;;;;;;;;;5005343;28;20651;-73
2022/04/11 06:39:58;;;;;;;33.35;18.20;;;;;;;;;;5007154;28;20018;-73
2022/04/11 06:42:23;;;;;;;29.38;16.45;;;;;;;;;;5003728;28;20292;-74
2022/04/11 06:44:48;;;;;;;33.25;17.55;;;;;;;;;;5007806;28;20472;-73
2022/04/11 06:47:13;;;;;;;31.27;17.95;;;;;;;;;;5000842;28;20033;-74
2022/04/11 06:49:38;;;;;;;30.55;16.08;;;;;;;;;;5006779;28;20026;-73
2022/04/11 06:52:04;;;;;;;33.60;16.47;;;;;;;;;;5003079;28;20065;-73
2022/04/11 06:54:30;;;;;;;29.85;16.33;;;;;;;;;;5009284;28;20264;-73
2022/04/11 06:56:56;;;;;;;27.50;16.20;;;;;;;;;;5004337;28;20021;-73
2022/04/11 06:59:21;;;;;;;26.45;14.85;;;;;;;;;;5005191;28;20076;-73
2022/04/11 07:01:46;;;;;;;32.65;16.08;;;;;;;;;;5015615;28;20053;-74
2022/04/11 07:04:11;;;;;;;34.45;16.52;;;;;;;;;;5002726;28;20267;-72
2022/04/11 07:06:37;;;;;;;33.37;16.97;;;;;;;;;;5016838;28;20025;-72
2022/04/11 07:09:02;;;;;;;38.38;16.95;;;;;;;;;;5008585;28;20789;-73
2022/04/11 07:11:27;;;;;;;25.77;15.25;;;;;;;;;;5010217;28;20263;-73
2022/04/11 07:13:52;;;;;;;30.90;15.77;;;;;;;;;;5007227;28;20026;-72
2022/04/11 07:16:17;;;;;;;27.67;15.43;;;;;;;;;;5017543;28;20049;-73
2022/04/11 07:18:42;;;;;;;34.20;18.13;;;;;;;;;;5019933;28;20632;-73
2022/04/11 07:21:07;;;;;;;37.72;16.80;;;;;;;;;;5017970;28;20245;-73
2022/04/11 07:23:33;;;;;;;34.65;15.90;;;;;;;;;;5008755;28;20034;-73
2022/04/11 07:25:58;;;;;;;30.60;16.10;;;;;;;;;;5024412;28;20415;-73
2022/04/11 07:28:23;;;;;;;28.85;15.75;;;;;;;;;;5016168;28;20033;-73
2022/04/11 07:30:48;;;;;;;30.67;17.43;;;;;;;;;;5009060;28;20041;-73
2022/04/11 07:33:13;;;;;;;24.97;15.87;;;;;;;;;;5012682;28;20264;-74
2022/04/11 07:35:39;;;;;;;29.37;17.77;;;;;;;;;;5008880;28;20279;-73
2022/04/11 07:38:04;;;;;;;31.67;17.17;;;;;;;;;;5004500;28;20259;-73
2022/04/11 07:40:30;;;;;;;29.05;16.80;;;;;;;;;;5014543;28;20037;-73
2022/04/11 07:42:55;;;;;;;26.17;15.70;;;;;;;;;;5006118;28;20480;-74
2022/04/11 07:45:21;;;;;;;30.20;14.77;;;;;;;;;;4996392;28;20064;-74
2022/04/11 07:47:46;;;;;;;30.98;18.20;;;;;;;;;;5004181;28;20145;-76
2022/04/11 07:50:11;;;;;;;30.80;16.83;;;;;;;;;;5005793;28;20110;-74
2022/04/11 07:52:40;;;;;;;31.93;16.97;;;;;;;;;;5006075;28;20384;-74
2022/04/11 07:55:06;;;;;;;23.63;15.43;;;;;;;;;;5008300;28;20298;-74
2022/04/11 07:57:31;;;;;;;24.50;15.32;;;;;;;;;;5008072;28;20061;-74
2022/04/11 07:59:56;;;;;;;35.88;15.90;;;;;;;;;;5003431;28;20018;-75
2022/04/11 08:02:25;;;;;;;24.60;14.07;;;;;;;;;;5008773;28;20080;-72
2022/04/11 08:04:50;;;;;;;30.67;16.27;;;;;;;;;;5005935;28;20022;-73
2022/04/11 08:07:16;;;;;;;22.83;14.65;;;;;;;;;;5011889;28;20033;-73
2022/04/11 08:09:41;;;;;;;24.75;13.02;;;;;;;;;;5011344;28;20058;-74
2022/04/11 08:12:06;;;;;;;24.15;13.40;;;;;;;;;;5009071;28;20053;-74
2022/04/11 08:14:32;;;;;;;25.20;13.73;;;;;;;;;;5012683;28;20535;-74
2022/04/11 08:17:02;;;;;;;27.95;13.65;;;;;;;;;;5005835;28;20026;-74
2022/04/11 08:19:27;;;;;;;23.85;13.73;;;;;;;;;;5012162;28;20494;-74
2022/04/11 08:21:53;;;;;;;22.55;13.63;;;;;;;;;;5007561;28;20026;-74
2022/04/11 08:24:18;;;;;;;22.40;12.63;;;;;;;;;;5006865;28;20030;-74
2022/04/11 08:26:43;;;;;;;29.92;13.13;;;;;;;;;;5007497;28;20377;-74
2022/04/11 08:29:08;;;;;;;24.53;11.73;;;;;;;;;;5002039;28;20428;-75
2022/04/11 08:31:33;;;;;;;18.83;11.90;;;;;;;;;;4998895;28;20757;-74
2022/04/11 08:33:58;;;;;;;21.85;13.60;;;;;;;;;;4996700;28;20492;-76
2022/04/11 08:36:24;;;;;;;21.40;12.35;;;;;;;;;;5009591;28;20495;-75
2022/04/11 08:38:52;;;;;;;22.70;12.02;;;;;;;;;;5008434;28;20040;-75
2022/04/11 08:41:17;;;;;;;27.17;11.25;;;;;;;;;;4998460;28;20030;-70
2022/04/11 08:43:43;;;;;;;21.33;13.50;;;;;;;;;;4998406;28;20018;-75
2022/04/11 08:46:08;;;;;;;37.92;14.25;;;;;;;;;;5006312;28;20026;-76
2022/04/11 08:48:33;;;;;;;31.20;11.98;;;;;;;;;;4995700;28;20018;-75
2022/04/11 08:50:59;;;;;;;19.80;11.02;;;;;;;;;;5001327;28;20093;-75
2022/04/11 08:53:24;;;;;;;21.73;11.57;;;;;;;;;;4996463;28;20022;-75
2022/04/11 08:55:49;;;;;;;18.60;10.35;;;;;;;;;;5002692;28;20424;-75
2022/04/11 08:58:15;;;;;;;67.60;11.88;;;;;;;;;;5010773;28;20669;-74
2022/04/11 09:00:40;;;;;;;19.13;11.13;;;;;;;;;;5018046;28;20516;-75
2022/04/11 09:03:06;;;;;;;17.58;9.95;;;;;;;;;;5006780;28;20057;-75
2022/04/11 09:05:32;;;;;;;21.77;10.13;;;;;;;;;;5010700;28;20021;-78
2022/04/11 09:07:58;;;;;;;19.63;9.27;;;;;;;;;;5008082;28;20076;-74
2022/04/11 09:10:29;;;;;;;18.75;8.57;;;;;;;;;;5000341;28;20031;-74
2022/04/11 09:12:55;;;;;;;15.80;9.50;;;;;;;;;;4997945;28;20053;-75
2022/04/11 09:15:23;;;;;;;17.75;9.90;;;;;;;;;;5010276;28;20028;-76
2022/04/11 09:17:48;;;;;;;19.85;10.18;;;;;;;;;;5003023;28;20017;-76
2022/04/11 09:20:14;;;;;;;17.27;9.13;;;;;;;;;;5000607;28;20036;-75
2022/04/11 09:22:40;;;;;;;20.23;10.65;;;;;;;;;;4998431;28;20330;-74
2022/04/11 09:25:09;;;;;;;15.88;10.40;;;;;;;;;;4997481;28;20022;-75
2022/04/11 09:27:34;;;;;;;18.70;9.02;;;;;;;;;;4997703;28;20025;-76
2022/04/11 09:30:00;;;;;;;19.85;8.45;;;;;;;;;;5004507;28;20029;-76
2022/04/11 09:32:25;;;;;;;20.60;8.40;;;;;;;;;;4998661;28;20052;-74
2022/04/11 09:34:54;;;;;;;16.35;8.70;;;;;;;;;;5002005;28;20038;-77
2022/04/11 09:37:20;;;;;;;14.18;9.00;;;;;;;;;;4997459;28;20026;-77
2022/04/11 09:39:53;;;;;;;19.23;8.70;;;;;;;;;;4996396;28;20049;-75
2022/04/11 09:42:28;;;;;;;18.30;8.57;;;;;;;;;;5012329;28;20022;-75
2022/04/11 09:44:57;;;;;;;19.98;9.60;;;;;;;;;;5004666;28;20026;-76
2022/04/11 09:47:22;;;;;;;15.93;8.52;;;;;;;;;;5005585;28;20116;-76
2022/04/11 09:49:48;;;;;;;15.30;8.90;;;;;;;;;;5003807;28;20022;-74
2022/04/11 09:52:14;;;;;;;18.30;10.40;;;;;;;;;;5018283;28;20283;-75
2022/04/11 09:54:43;;;;;;;20.25;7.20;;;;;;;;;;5001070;28;20037;-75
2022/04/11 09:57:09;;;;;;;14.88;8.77;;;;;;;;;;5006912;28;20022;-76
2022/04/11 09:59:36;;;;;;;12.60;7.55;;;;;;;;;;5004979;28;20262;-75
2022/04/11 10:02:02;;;;;;;20.05;8.05;;;;;;;;;;5010805;28;20029;-75
2022/04/11 10:04:28;;;;;;;15.90;8.57;;;;;;;;;;5003436;28;20036;-72
2022/04/11 10:06:54;;;;;;;12.40;8.43;;;;;;;;;;5007378;28;20404;-73
2022/04/11 10:09:21;;;;;;;15.10;7.60;;;;;;;;;;5000865;28;20060;-74
2022/04/11 10:11:47;;;;;;;14.15;8.57;;;;;;;;;;5003502;28;20026;-73
2022/04/11 10:14:15;;;;;;;18.50;6.72;;;;;;;;;;5002122;28;20519;-75
2022/04/11 10:16:42;;;;;;;17.17;7.60;;;;;;;;;;5007246;28;20523;-75
2022/04/11 10:19:07;;;;;;;11.05;5.93;;;;;;;;;;4999620;28;20060;-75
2022/04/11 10:21:33;;;;;;;18.30;8.90;;;;;;;;;;5000550;28;20471;-76
2022/04/11 10:24:06;;;;;;;12.93;7.30;;;;;;;;;;4998493;28;20029;-75
2022/04/11 10:26:55;;;;;;;15.90;7.60;;;;;;;;;;4997998;28;20078;-75
2022/04/11 10:29:41;;;;;;;10.65;5.63;;;;;;;;;;4995861;28;20028;-74
2022/04/11 10:32:06;;;;;;;14.13;8.05;;;;;;;;;;4999760;28;20042;-73
2022/04/11 10:34:45;;;;;;;14.60;7.93;;;;;;;;;;5003185;28;20025;-75
2022/04/11 10:37:11;;;;;;;12.52;6.93;;;;;;;;;;5002033;28;20267;-76
2022/04/11 10:39:37;;;;;;;13.77;6.90;;;;;;;;;;5007137;28;20526;-75
2022/04/11 10:42:05;;;;;;;14.65;7.07;;;;;;;;;;5000830;28;20029;-75
2022/04/11 10:44:35;;;;;;;13.75;5.22;;;;;;;;;;5010346;28;20060;-75
2022/04/11 10:47:09;;;;;;;9.20;4.95;;;;;;;;;;5007591;28;20029;-72
2022/04/11 10:49:44;;;;;;;8.82;5.15;;;;;;;;;;4999734;28;20091;-69
2022/04/11 10:52:34;;;;;;;9.57;6.15;;;;;;;;;;4995829;28;20301;-74
2022/04/11 10:55:05;;;;;;;9.15;5.75;;;;;;;;;;5004992;28;20116;-70
2022/04/11 10:57:34;;;;;;;11.90;6.63;;;;;;;;;;4997913;28;20100;-74
2022/04/11 11:00:06;;;;;;;12.23;4.80;;;;;;;;;;5008683;28;20022;-73
2022/04/11 11:05:24;;;;;;;14.50;5.40;;;;;;;;;;5006130;28;20077;-77
2022/04/11 11:07:49;;;;;;;10.90;6.07;;;;;;;;;;5005324;28;20136;-76
2022/04/11 11:10:25;;;;;;;10.27;5.80;;;;;;;;;;5001295;28;20441;-74
2022/04/11 11:12:51;;;;;;;14.55;6.43;;;;;;;;;;5002456;28;20029;-73
2022/04/11 11:15:26;;;;;;;12.00;6.22;;;;;;;;;;5007080;28;20034;-75
2022/04/11 11:17:58;;;;;;;11.68;6.00;;;;;;;;;;5000437;28;20073;-74
2022/04/11 11:20:23;;;;;;;13.65;6.47;;;;;;;;;;5002100;28;20455;-74
2022/04/11 11:23:07;;;;;;;11.50;6.30;;;;;;;;;;5001966;28;20032;-77
2022/04/11 11:25:33;;;;;;;9.07;5.63;;;;;;;;;;5002818;28;20013;-73
2022/04/11 11:27:58;;;;;;;11.05;6.20;;;;;;;;;;5005021;28;20076;-75
2022/04/11 11:30:23;;;;;;;11.55;6.43;;;;;;;;;;5008460;28;20211;-72
2022/04/11 11:32:48;;;;;;;12.07;6.80;;;;;;;;;;5004818;28;20033;-73
2022/04/11 11:35:14;;;;;;;13.10;5.65;;;;;;;;;;5000753;28;20046;-73
2022/04/11 11:37:40;;;;;;;12.32;7.13;;;;;;;;;;5002468;28;20026;-74
2022/04/11 11:40:06;;;;;;;13.18;7.13;;;;;;;;;;5004962;28;20495;-71
2022/04/11 11:42:35;;;;;;;17.00;6.22;;;;;;;;;;5003923;28;20022;-73
2022/04/11 11:45:01;;;;;;;11.95;6.18;;;;;;;;;;5006730;28;20022;-74
2022/04/11 11:47:26;;;;;;;10.32;6.72;;;;;;;;;;5021498;28;20088;-73
2022/04/11 11:49:52;;;;;;;16.58;8.30;;;;;;;;;;5007307;28;20101;-71
2022/04/11 11:52:18;;;;;;;15.80;7.68;;;;;;;;;;5006619;28;20021;-70
2022/04/11 11:54:45;;;;;;;14.55;8.00;;;;;;;;;;5002736;28;20038;-73
2022/04/11 11:57:13;;;;;;;19.50;7.97;;;;;;;;;;5007186;28;20026;-71
2022/04/11 11:59:55;;;;;;;12.38;6.07;;;;;;;;;;5008610;28;20376;-71
2022/04/11 12:05:15;;;;;;;11.20;6.30;;;;;;;;;;5012333;28;20129;-75
2022/04/11 12:07:40;;;;;;;17.13;7.47;;;;;;;;;;5010970;28;20029;-73
2022/04/11 12:10:09;;;;;;;11.32;6.00;;;;;;;;;;5008447;28;20076;-74
2022/04/11 12:12:34;;;;;;;10.98;6.10;;;;;;;;;;5008769;28;20496;-74
2022/04/11 12:15:00;;;;;;;9.73;6.32;;;;;;;;;;5016874;28;20033;-74
2022/04/11 12:17:33;;;;;;;9.48;6.20;;;;;;;;;;4997826;28;20062;-73
2022/04/11 12:20:05;;;;;;;17.02;6.88;;;;;;;;;;5002023;28;20113;-73
2022/04/11 12:22:30;;;;;;;18.42;6.80;;;;;;;;;;5012949;28;20037;-70
2022/04/11 12:24:55;;;;;;;11.37;6.83;;;;;;;;;;5005634;28;20076;-75
2022/04/11 12:27:21;;;;;;;10.53;7.00;;;;;;;;;;5009617;28;20041;-74
2022/04/11 12:29:46;;;;;;;16.50;8.43;;;;;;;;;;5005594;28;20256;-71
2022/04/11 12:32:13;;;;;;;19.25;9.00;;;;;;;;;;5004189;28;20387;-74
2022/04/11 12:34:39;;;;;;;12.30;6.78;;;;;;;;;;5010457;28;20033;-73
2022/04/11 12:37:05;;;;;;;13.35;7.50;;;;;;;;;;5002107;28;20538;-73
2022/04/11 12:39:31;;;;;;;15.05;7.60;;;;;;;;;;5001876;28;20030;-70
2022/04/11 12:41:57;;;;;;;13.10;6.50;;;;;;;;;;5004614;28;20034;-73
2022/04/11 12:44:35;;;;;;;13.65;6.53;;;;;;;;;;4995330;28;20022;-71
2022/04/11 12:47:00;;;;;;;14.07;6.82;;;;;;;;;;5000621;28;20050;-73
2022/04/11 12:49:25;;;;;;;15.50;8.53;;;;;;;;;;4996270;28;20421;-73
2022/04/11 12:52:01;;;;;;;13.25;7.03;;;;;;;;;;4997232;28;20030;-74
2022/04/11 12:54:39;;;;;;;13.38;8.20;;;;;;;;;;5006302;28;20029;-73
2022/04/11 12:57:04;;;;;;;10.63;6.90;;;;;;;;;;5007436;28;20031;-71
2022/04/11 12:59:34;;;;;;;13.98;7.50;;;;;;;;;;5019837;28;20032;-74
2022/04/11 13:02:15;;;;;;;9.20;7.22;;;;;;;;;;5005084;28;20026;-75
2022/04/11 13:04:42;;;;;;;12.07;6.63;;;;;;;;;;5002203;28;20519;-74
2022/04/11 13:07:08;;;;;;;12.55;7.47;;;;;;;;;;5002565;28;20037;-75
2022/04/11 13:09:33;;;;;;;16.30;6.85;;;;;;;;;;5002852;28;20048;-73
2022/04/11 13:11:59;;;;;;;14.35;6.70;;;;;;;;;;4997961;28;20116;-74
2022/04/11 13:14:24;;;;;;;18.27;7.40;;;;;;;;;;4998502;28;20025;-74
2022/04/11 13:19:34;;;;;;;12.35;7.13;;;;;;;;;;5003063;28;20120;-74
2022/04/11 13:22:00;;;;;;;12.38;6.72;;;;;;;;;;5008988;28;20648;-72
2022/04/11 13:24:25;;;;;;;13.52;7.82;;;;;;;;;;4999598;28;20029;-73
2022/04/11 13:26:51;;;;;;;13.95;7.60;;;;;;;;;;4996613;28;20022;-74
2022/04/11 13:29:16;;;;;;;14.32;7.60;;;;;;;;;;5003044;28;20096;-73
2022/04/11 13:31:41;;;;;;;12.23;7.13;;;;;;;;;;5000368;28;20063;-74
2022/04/11 13:34:07;;;;;;;11.68;8.35;;;;;;;;;;5002603;28;20262;-74
2022/04/11 13:36:33;;;;;;;11.77;6.93;;;;;;;;;;5001773;28;20342;-75
2022/04/11 13:38:58;;;;;;;14.40;8.30;;;;;;;;;;5003132;28;20108;-73
2022/04/11 13:41:23;;;;;;;13.27;7.37;;;;;;;;;;5004316;28;20358;-73
2022/04/11 13:43:48;;;;;;;12.82;8.25;;;;;;;;;;5004477;28;20084;-74
2022/04/11 13:46:13;;;;;;;10.60;7.22;;;;;;;;;;5004334;28;20480;-73
2022/04/11 13:48:39;;;;;;;11.27;7.93;;;;;;;;;;5005856;28;20108;-74
2022/04/11 13:51:04;;;;;;;10.90;7.40;;;;;;;;;;5004800;28;20457;-75
2022/04/11 13:53:29;;;;;;;12.70;7.90;;;;;;;;;;4999337;28;20034;-72
2022/04/11 13:55:55;;;;;;;14.18;8.07;;;;;;;;;;5011182;28;20121;-75
2022/04/11 13:58:20;;;;;;;15.75;8.82;;;;;;;;;;5001513;28;20328;-73
2022/04/11 14:00:46;;;;;;;15.77;8.23;;;;;;;;;;5005851;28;20036;-72
2022/04/11 14:03:11;;;;;;;14.32;8.73;;;;;;;;;;5014768;28;20471;-74
2022/04/11 14:05:36;;;;;;;13.68;6.93;;;;;;;;;;5006194;28;20295;-74
2022/04/11 14:08:02;;;;;;;11.45;7.88;;;;;;;;;;5007476;28;20025;-73
2022/04/11 14:10:27;;;;;;;10.02;7.45;;;;;;;;;;5004338;28;20036;-74
2022/04/11 14:12:52;;;;;;;10.13;6.83;;;;;;;;;;5004287;28;20026;-76
2022/04/11 14:15:17;;;;;;;11.23;8.67;;;;;;;;;;5004307;28;20045;-75
2022/04/11 14:17:43;;;;;;;17.23;7.43;;;;;;;;;;5001702;28;20652;-75
2022/04/11 14:20:08;;;;;;;12.07;7.20;;;;;;;;;;5004718;28;20109;-74
2022/04/11 14:22:33;;;;;;;13.23;7.38;;;;;;;;;;4998576;28;20023;-73
2022/04/11 14:24:58;;;;;;;12.30;7.47;;;;;;;;;;5005907;28;20021;-71
2022/04/11 14:27:24;;;;;;;13.45;8.05;;;;;;;;;;4996472;28;20030;-73